sensor_id;sensor_type;location;lat;lon;timestamp;temperature;humidity
44607;DHT22;30315;46.072;14.474;2022-09-27T00:02:16;15.80;93.40
44607;DHT22;30315;46.072;14.474;2022-09-27T00:04:43;15.70;93.30
44607;DHT22;30315;46.072;14.474;2022-09-27T00:07:10;15.70;93.20
44607;DHT22;30315;46.072;14.474;2022-09-27T00:09:37;15.60;93.60
44607;DHT22;30315;46.072;14.474;2022-09-27T00:12:04;15.60;94.00
44607;DHT22;30315;46.072;14.474;2022-09-27T00:14:31;15.60;94.10
44607;DHT22;30315;46.072;14.474;2022-09-27T00:16:57;15.60;94.20
44607;DHT22;30315;46.072;14.474;2022-09-27T00:19:24;15.60;94.50
44607;DHT22;30315;46.072;14.474;2022-09-27T00:21:51;15.50;94.80
44607;DHT22;30315;46.072;14.474;2022-09-27T00:24:19;15.60;95.00
44607;DHT22;30315;46.072;14.474;2022-09-27T00:26:47;15.60;95.10
44607;DHT22;30315;46.072;14.474;2022-09-27T00:29:15;15.60;95.30
44607;DHT22;30315;46.072;14.474;2022-09-27T00:31:42;15.60;95.40
44607;DHT22;30315;46.072;14.474;2022-09-27T00:34:10;15.60;95.60
44607;DHT22;30315;46.072;14.474;2022-09-27T00:36:41;15.60;95.70
44607;DHT22;30315;46.072;14.474;2022-09-27T00:39:09;15.60;95.90
44607;DHT22;30315;46.072;14.474;2022-09-27T00:41:36;15.60;96.10
44607;DHT22;30315;46.072;14.474;2022-09-27T00:44:05;15.60;96.10
44607;DHT22;30315;46.072;14.474;2022-09-27T00:46:54;15.60;96.00
44607;DHT22;30315;46.072;14.474;2022-09-27T00:49:25;15.70;96.10
44607;DHT22;30315;46.072;14.474;2022-09-27T00:52:01;15.60;96.10
44607;DHT22;30315;46.072;14.474;2022-09-27T00:54:29;15.70;96.20
44607;DHT22;30315;46.072;14.474;2022-09-27T00:56:57;15.70;96.40
44607;DHT22;30315;46.072;14.474;2022-09-27T00:59:26;15.70;96.50
44607;DHT22;30315;46.072;14.474;2022-09-27T01:01:55;15.70;96.70
44607;DHT22;30315;46.072;14.474;2022-09-27T01:04:23;15.70;96.70
44607;DHT22;30315;46.072;14.474;2022-09-27T01:06:52;15.70;96.60
44607;DHT22;30315;46.072;14.474;2022-09-27T01:09:21;15.70;96.60
44607;DHT22;30315;46.072;14.474;2022-09-27T01:11:50;15.70;96.70
44607;DHT22;30315;46.072;14.474;2022-09-27T01:19:34;15.70;96.80
44607;DHT22;30315;46.072;14.474;2022-09-27T01:22:09;15.80;97.00
44607;DHT22;30315;46.072;14.474;2022-09-27T01:24:50;15.80;97.10
44607;DHT22;30315;46.072;14.474;2022-09-27T01:40:38;15.80;97.30
44607;DHT22;30315;46.072;14.474;2022-09-27T01:43:28;15.70;97.10
44607;DHT22;30315;46.072;14.474;2022-09-27T01:45:58;15.70;97.20
44607;DHT22;30315;46.072;14.474;2022-09-27T01:48:50;15.80;97.30
44607;DHT22;30315;46.072;14.474;2022-09-27T01:53:53;15.70;97.00
44607;DHT22;30315;46.072;14.474;2022-09-27T01:56:42;15.70;96.90
44607;DHT22;30315;46.072;14.474;2022-09-27T01:59:21;15.70;97.00
44607;DHT22;30315;46.072;14.474;2022-09-27T02:02:02;15.70;97.10
44607;DHT22;30315;46.072;14.474;2022-09-27T02:04:47;15.70;97.10
44607;DHT22;30315;46.072;14.474;2022-09-27T02:07:21;15.70;97.20
44607;DHT22;30315;46.072;14.474;2022-09-27T02:09:54;15.70;97.10
44607;DHT22;30315;46.072;14.474;2022-09-27T02:15:23;15.70;97.30
44607;DHT22;30315;46.072;14.474;2022-09-27T02:18:23;15.60;97.40
44607;DHT22;30315;46.072;14.474;2022-09-27T02:20:54;15.70;97.50
44607;DHT22;30315;46.072;14.474;2022-09-27T02:23:40;15.70;97.50
44607;DHT22;30315;46.072;14.474;2022-09-27T02:26:16;15.70;97.60
44607;DHT22;30315;46.072;14.474;2022-09-27T02:28:46;15.60;97.70
44607;DHT22;30315;46.072;14.474;2022-09-27T02:31:23;15.70;97.70
44607;DHT22;30315;46.072;14.474;2022-09-27T02:33:53;15.70;97.70
44607;DHT22;30315;46.072;14.474;2022-09-27T02:36:22;15.70;97.80
44607;DHT22;30315;46.072;14.474;2022-09-27T02:38:49;15.70;97.90
44607;DHT22;30315;46.072;14.474;2022-09-27T02:41:20;15.60;97.80
44607;DHT22;30315;46.072;14.474;2022-09-27T02:43:48;15.60;97.80
44607;DHT22;30315;46.072;14.474;2022-09-27T02:51:21;15.60;97.90
44607;DHT22;30315;46.072;14.474;2022-09-27T02:54:01;15.70;97.90
44607;DHT22;30315;46.072;14.474;2022-09-27T02:56:59;15.70;97.90
44607;DHT22;30315;46.072;14.474;2022-09-27T03:05:51;15.60;97.90
44607;DHT22;30315;46.072;14.474;2022-09-27T03:08:19;15.60;98.00
44607;DHT22;30315;46.072;14.474;2022-09-27T03:10:46;15.60;98.00
44607;DHT22;30315;46.072;14.474;2022-09-27T03:13:15;15.60;97.90
44607;DHT22;30315;46.072;14.474;2022-09-27T03:15:43;15.60;97.80
44607;DHT22;30315;46.072;14.474;2022-09-27T03:18:28;15.60;97.80
44607;DHT22;30315;46.072;14.474;2022-09-27T03:21:21;15.60;97.90
44607;DHT22;30315;46.072;14.474;2022-09-27T03:23:48;15.60;97.90
44607;DHT22;30315;46.072;14.474;2022-09-27T03:26:15;15.60;98.00
44607;DHT22;30315;46.072;14.474;2022-09-27T03:28:42;15.60;97.90
44607;DHT22;30315;46.072;14.474;2022-09-27T03:31:09;15.60;97.80
44607;DHT22;30315;46.072;14.474;2022-09-27T03:34:02;15.60;97.80
44607;DHT22;30315;46.072;14.474;2022-09-27T03:36:29;15.60;97.60
44607;DHT22;30315;46.072;14.474;2022-09-27T03:38:56;15.60;97.50
44607;DHT22;30315;46.072;14.474;2022-09-27T03:41:23;15.60;97.60
44607;DHT22;30315;46.072;14.474;2022-09-27T03:43:50;15.50;97.60
44607;DHT22;30315;46.072;14.474;2022-09-27T03:46:25;15.60;97.60
44607;DHT22;30315;46.072;14.474;2022-09-27T03:48:52;15.60;97.70
44607;DHT22;30315;46.072;14.474;2022-09-27T03:51:19;15.50;97.70
44607;DHT22;30315;46.072;14.474;2022-09-27T03:53:46;15.50;97.80
44607;DHT22;30315;46.072;14.474;2022-09-27T03:56:13;15.60;97.90
44607;DHT22;30315;46.072;14.474;2022-09-27T03:58:40;15.50;97.70
44607;DHT22;30315;46.072;14.474;2022-09-27T04:01:07;15.50;97.60
44607;DHT22;30315;46.072;14.474;2022-09-27T04:03:37;15.60;97.60
44607;DHT22;30315;46.072;14.474;2022-09-27T04:06:34;15.50;97.50
44607;DHT22;30315;46.072;14.474;2022-09-27T04:09:02;15.40;97.30
44607;DHT22;30315;46.072;14.474;2022-09-27T04:11:47;15.50;97.40
44607;DHT22;30315;46.072;14.474;2022-09-27T04:14:14;15.50;97.40
44607;DHT22;30315;46.072;14.474;2022-09-27T04:17:01;15.50;97.20
44607;DHT22;30315;46.072;14.474;2022-09-27T04:19:44;15.40;97.20
44607;DHT22;30315;46.072;14.474;2022-09-27T04:22:12;15.40;97.30
44607;DHT22;30315;46.072;14.474;2022-09-27T04:24:39;15.40;97.40
44607;DHT22;30315;46.072;14.474;2022-09-27T04:27:17;15.40;97.40
44607;DHT22;30315;46.072;14.474;2022-09-27T04:29:48;15.40;97.40
44607;DHT22;30315;46.072;14.474;2022-09-27T04:32:41;15.40;97.50
44607;DHT22;30315;46.072;14.474;2022-09-27T04:35:34;15.40;97.50
44607;DHT22;30315;46.072;14.474;2022-09-27T04:38:20;15.40;97.60
44607;DHT22;30315;46.072;14.474;2022-09-27T04:40:49;15.40;97.50
44607;DHT22;30315;46.072;14.474;2022-09-27T04:43:17;15.40;97.60
44607;DHT22;30315;46.072;14.474;2022-09-27T04:45:44;15.40;97.80
44607;DHT22;30315;46.072;14.474;2022-09-27T04:48:11;15.40;97.80
44607;DHT22;30315;46.072;14.474;2022-09-27T04:50:38;15.40;97.80
44607;DHT22;30315;46.072;14.474;2022-09-27T04:53:06;15.40;97.80
44607;DHT22;30315;46.072;14.474;2022-09-27T04:55:33;15.40;97.80
44607;DHT22;30315;46.072;14.474;2022-09-27T04:58:00;15.50;97.70
44607;DHT22;30315;46.072;14.474;2022-09-27T05:00:28;15.50;97.70
44607;DHT22;30315;46.072;14.474;2022-09-27T05:03:05;15.40;97.70
44607;DHT22;30315;46.072;14.474;2022-09-27T05:05:53;15.40;97.70
44607;DHT22;30315;46.072;14.474;2022-09-27T05:08:21;15.40;97.70
44607;DHT22;30315;46.072;14.474;2022-09-27T05:11:13;15.40;97.80
44607;DHT22;30315;46.072;14.474;2022-09-27T05:14:22;15.40;97.80
44607;DHT22;30315;46.072;14.474;2022-09-27T05:17:15;15.40;97.80
44607;DHT22;30315;46.072;14.474;2022-09-27T05:20:02;15.40;98.20
44607;DHT22;30315;46.072;14.474;2022-09-27T05:22:39;15.50;97.90
44607;DHT22;30315;46.072;14.474;2022-09-27T05:25:06;15.50;97.90
44607;DHT22;30315;46.072;14.474;2022-09-27T05:27:34;15.40;97.90
44607;DHT22;30315;46.072;14.474;2022-09-27T05:30:00;15.40;97.90
44607;DHT22;30315;46.072;14.474;2022-09-27T05:32:44;15.50;97.70
44607;DHT22;30315;46.072;14.474;2022-09-27T05:35:32;15.50;97.70
44607;DHT22;30315;46.072;14.474;2022-09-27T05:38:02;15.50;97.60
44607;DHT22;30315;46.072;14.474;2022-09-27T05:40:33;15.50;97.60
44607;DHT22;30315;46.072;14.474;2022-09-27T05:43:08;15.40;97.40
44607;DHT22;30315;46.072;14.474;2022-09-27T05:45:35;15.50;97.40
44607;DHT22;30315;46.072;14.474;2022-09-27T05:48:04;15.40;97.40
44607;DHT22;30315;46.072;14.474;2022-09-27T05:50:35;15.50;97.60
44607;DHT22;30315;46.072;14.474;2022-09-27T05:53:03;15.50;97.80
44607;DHT22;30315;46.072;14.474;2022-09-27T05:55:32;15.50;97.90
44607;DHT22;30315;46.072;14.474;2022-09-27T05:58:00;15.50;98.10
44607;DHT22;30315;46.072;14.474;2022-09-27T06:00:37;15.50;98.00
44607;DHT22;30315;46.072;14.474;2022-09-27T06:03:18;15.50;98.00
44607;DHT22;30315;46.072;14.474;2022-09-27T06:06:03;15.60;98.10
44607;DHT22;30315;46.072;14.474;2022-09-27T06:08:42;15.60;98.10
44607;DHT22;30315;46.072;14.474;2022-09-27T06:11:12;15.60;98.10
44607;DHT22;30315;46.072;14.474;2022-09-27T06:13:39;15.60;97.90
44607;DHT22;30315;46.072;14.474;2022-09-27T06:16:09;15.60;98.00
44607;DHT22;30315;46.072;14.474;2022-09-27T06:18:38;15.60;98.20
44607;DHT22;30315;46.072;14.474;2022-09-27T06:21:05;15.60;98.30
44607;DHT22;30315;46.072;14.474;2022-09-27T06:23:33;15.70;98.40
44607;DHT22;30315;46.072;14.474;2022-09-27T06:26:15;15.70;98.60
44607;DHT22;30315;46.072;14.474;2022-09-27T06:28:51;15.70;98.70
44607;DHT22;30315;46.072;14.474;2022-09-27T06:31:18;15.70;98.80
44607;DHT22;30315;46.072;14.474;2022-09-27T06:33:50;15.80;98.90
44607;DHT22;30315;46.072;14.474;2022-09-27T06:36:17;15.80;98.60
44607;DHT22;30315;46.072;14.474;2022-09-27T06:38:45;15.90;98.80
44607;DHT22;30315;46.072;14.474;2022-09-27T06:41:20;15.80;98.60
44607;DHT22;30315;46.072;14.474;2022-09-27T06:43:53;15.90;98.00
44607;DHT22;30315;46.072;14.474;2022-09-27T06:46:40;15.90;97.50
44607;DHT22;30315;46.072;14.474;2022-09-27T06:49:08;15.90;97.60
44607;DHT22;30315;46.072;14.474;2022-09-27T06:51:35;15.90;97.80
44607;DHT22;30315;46.072;14.474;2022-09-27T06:54:02;15.90;98.00
44607;DHT22;30315;46.072;14.474;2022-09-27T06:56:29;15.90;98.10
44607;DHT22;30315;46.072;14.474;2022-09-27T06:58:55;15.90;98.10
44607;DHT22;30315;46.072;14.474;2022-09-27T07:01:42;15.90;98.00
44607;DHT22;30315;46.072;14.474;2022-09-27T07:04:29;16.00;98.00
44607;DHT22;30315;46.072;14.474;2022-09-27T07:06:56;16.00;97.70
44607;DHT22;30315;46.072;14.474;2022-09-27T07:09:25;16.00;97.50
44607;DHT22;30315;46.072;14.474;2022-09-27T07:11:52;16.00;97.50
44607;DHT22;30315;46.072;14.474;2022-09-27T07:14:21;16.00;97.40
44607;DHT22;30315;46.072;14.474;2022-09-27T07:16:48;16.10;97.50
44607;DHT22;30315;46.072;14.474;2022-09-27T07:19:18;16.00;97.50
44607;DHT22;30315;46.072;14.474;2022-09-27T07:21:49;16.00;97.50
44607;DHT22;30315;46.072;14.474;2022-09-27T07:24:16;16.00;97.50
44607;DHT22;30315;46.072;14.474;2022-09-27T07:26:43;16.00;97.50
44607;DHT22;30315;46.072;14.474;2022-09-27T07:29:12;16.00;97.50
44607;DHT22;30315;46.072;14.474;2022-09-27T07:31:40;16.10;97.70
44607;DHT22;30315;46.072;14.474;2022-09-27T07:34:08;16.10;97.70
44607;DHT22;30315;46.072;14.474;2022-09-27T07:36:36;16.00;97.60
44607;DHT22;30315;46.072;14.474;2022-09-27T07:39:03;16.10;97.70
44607;DHT22;30315;46.072;14.474;2022-09-27T07:41:32;16.00;97.80
44607;DHT22;30315;46.072;14.474;2022-09-27T07:43:59;16.10;97.80
44607;DHT22;30315;46.072;14.474;2022-09-27T07:46:28;16.10;97.60
44607;DHT22;30315;46.072;14.474;2022-09-27T07:49:17;16.10;97.60
44607;DHT22;30315;46.072;14.474;2022-09-27T07:52:04;16.10;97.60
44607;DHT22;30315;46.072;14.474;2022-09-27T07:55:00;16.10;97.40
44607;DHT22;30315;46.072;14.474;2022-09-27T07:57:33;16.10;97.20
44607;DHT22;30315;46.072;14.474;2022-09-27T08:00:02;16.10;97.00
44607;DHT22;30315;46.072;14.474;2022-09-27T08:02:39;16.10;96.90
44607;DHT22;30315;46.072;14.474;2022-09-27T08:05:06;16.10;97.00
44607;DHT22;30315;46.072;14.474;2022-09-27T08:07:34;16.10;97.10
44607;DHT22;30315;46.072;14.474;2022-09-27T08:10:01;16.20;96.70
44607;DHT22;30315;46.072;14.474;2022-09-27T08:12:31;16.20;96.60
44607;DHT22;30315;46.072;14.474;2022-09-27T08:15:01;16.20;96.90
44607;DHT22;30315;46.072;14.474;2022-09-27T08:17:31;16.20;97.30
44607;DHT22;30315;46.072;14.474;2022-09-27T08:20:13;16.20;97.30
44607;DHT22;30315;46.072;14.474;2022-09-27T08:23:12;16.30;97.20
44607;DHT22;30315;46.072;14.474;2022-09-27T08:25:42;16.20;96.70
44607;DHT22;30315;46.072;14.474;2022-09-27T08:28:35;16.20;96.60
44607;DHT22;30315;46.072;14.474;2022-09-27T08:31:11;16.20;96.60
44607;DHT22;30315;46.072;14.474;2022-09-27T08:33:39;16.20;96.30
44607;DHT22;30315;46.072;14.474;2022-09-27T08:36:11;16.20;96.20
44607;DHT22;30315;46.072;14.474;2022-09-27T08:38:39;16.20;96.00
44607;DHT22;30315;46.072;14.474;2022-09-27T08:44:06;16.00;96.70
44607;DHT22;30315;46.072;14.474;2022-09-27T08:49:30;16.30;97.30
44607;DHT22;30315;46.072;14.474;2022-09-27T08:51:59;16.30;97.60
44607;DHT22;30315;46.072;14.474;2022-09-27T08:54:27;16.40;97.70
44607;DHT22;30315;46.072;14.474;2022-09-27T08:56:57;16.40;97.80
44607;DHT22;30315;46.072;14.474;2022-09-27T08:59:29;16.40;98.00
44607;DHT22;30315;46.072;14.474;2022-09-27T09:01:57;16.50;97.30
44607;DHT22;30315;46.072;14.474;2022-09-27T09:04:32;16.50;96.60
44607;DHT22;30315;46.072;14.474;2022-09-27T09:26:46;16.20;95.30
44607;DHT22;30315;46.072;14.474;2022-09-27T09:30:04;16.20;95.30
44607;DHT22;30315;46.072;14.474;2022-09-27T09:35:34;16.10;95.40
44607;DHT22;30315;46.072;14.474;2022-09-27T09:37:42;16.10;95.40
44607;DHT22;30315;46.072;14.474;2022-09-27T09:42:58;16.10;95.90
44607;DHT22;30315;46.072;14.474;2022-09-27T09:45:29;16.10;96.20
44607;DHT22;30315;46.072;14.474;2022-09-27T09:47:59;16.10;96.40
44607;DHT22;30315;46.072;14.474;2022-09-27T09:50:40;16.10;96.10
44607;DHT22;30315;46.072;14.474;2022-09-27T09:53:44;16.00;96.20
44607;DHT22;30315;46.072;14.474;2022-09-27T09:56:06;16.00;96.40
44607;DHT22;30315;46.072;14.474;2022-09-27T10:03:52;16.00;96.40
44607;DHT22;30315;46.072;14.474;2022-09-27T10:06:19;16.00;96.10
44607;DHT22;30315;46.072;14.474;2022-09-27T10:08:46;15.90;96.20
44607;DHT22;30315;46.072;14.474;2022-09-27T10:11:38;15.80;96.50
44607;DHT22;30315;46.072;14.474;2022-09-27T10:14:26;15.80;96.80
44607;DHT22;30315;46.072;14.474;2022-09-27T10:16:58;15.70;97.00
44607;DHT22;30315;46.072;14.474;2022-09-27T10:19:30;15.80;97.60
44607;DHT22;30315;46.072;14.474;2022-09-27T10:22:02;15.80;97.40
44607;DHT22;30315;46.072;14.474;2022-09-27T10:24:29;15.90;98.60
44607;DHT22;30315;46.072;14.474;2022-09-27T10:27:53;15.90;98.20
44607;DHT22;30315;46.072;14.474;2022-09-27T10:30:29;15.90;98.20
44607;DHT22;30315;46.072;14.474;2022-09-27T10:33:02;16.00;97.80
44607;DHT22;30315;46.072;14.474;2022-09-27T10:35:41;15.90;97.70
44607;DHT22;30315;46.072;14.474;2022-09-27T10:40:55;16.00;98.10
44607;DHT22;30315;46.072;14.474;2022-09-27T10:43:32;16.00;98.20
44607;DHT22;30315;46.072;14.474;2022-09-27T10:46:25;16.00;98.30
44607;DHT22;30315;46.072;14.474;2022-09-27T10:49:18;15.90;98.20
44607;DHT22;30315;46.072;14.474;2022-09-27T10:51:52;15.90;98.00
44607;DHT22;30315;46.072;14.474;2022-09-27T10:54:27;16.00;98.20
44607;DHT22;30315;46.072;14.474;2022-09-27T10:59:35;16.20;98.60
44607;DHT22;30315;46.072;14.474;2022-09-27T11:02:05;16.20;98.60
44607;DHT22;30315;46.072;14.474;2022-09-27T11:11:03;16.40;98.60
44607;DHT22;30315;46.072;14.474;2022-09-27T11:13:34;16.60;98.60
44607;DHT22;30315;46.072;14.474;2022-09-27T11:29:09;16.60;96.60
44607;DHT22;30315;46.072;14.474;2022-09-27T11:38:07;16.70;96.20
44607;DHT22;30315;46.072;14.474;2022-09-27T11:40:23;16.70;96.30
44607;DHT22;30315;46.072;14.474;2022-09-27T11:45:35;16.80;96.60
44607;DHT22;30315;46.072;14.474;2022-09-27T11:51:06;17.00;96.70
44607;DHT22;30315;46.072;14.474;2022-09-27T12:09:15;17.10;95.10
44607;DHT22;30315;46.072;14.474;2022-09-27T12:11:53;17.10;94.90
44607;DHT22;30315;46.072;14.474;2022-09-27T12:17:11;17.10;95.10
44607;DHT22;30315;46.072;14.474;2022-09-27T12:19:46;16.70;94.90
44607;DHT22;30315;46.072;14.474;2022-09-27T12:22:22;17.00;95.40
44607;DHT22;30315;46.072;14.474;2022-09-27T12:25:13;17.00;95.70
44607;DHT22;30315;46.072;14.474;2022-09-27T12:30:37;17.00;96.40
44607;DHT22;30315;46.072;14.474;2022-09-27T12:35:52;17.00;96.70
44607;DHT22;30315;46.072;14.474;2022-09-27T12:38:36;17.00;96.50
44607;DHT22;30315;46.072;14.474;2022-09-27T12:41:04;16.90;95.50
44607;DHT22;30315;46.072;14.474;2022-09-27T12:43:43;16.90;95.00
44607;DHT22;30315;46.072;14.474;2022-09-27T12:51:21;16.70;95.40
44607;DHT22;30315;46.072;14.474;2022-09-27T12:59:04;16.70;96.50
44607;DHT22;30315;46.072;14.474;2022-09-27T13:12:12;16.60;96.30
44607;DHT22;30315;46.072;14.474;2022-09-27T13:20:52;16.40;94.40
44607;DHT22;30315;46.072;14.474;2022-09-27T13:25:53;16.20;93.00
44607;DHT22;30315;46.072;14.474;2022-09-27T13:34:23;16.00;92.90
44607;DHT22;30315;46.072;14.474;2022-09-27T13:36:55;16.00;93.50
44607;DHT22;30315;46.072;14.474;2022-09-27T13:39:22;16.00;93.70
44607;DHT22;30315;46.072;14.474;2022-09-27T13:42:16;15.90;92.50
44607;DHT22;30315;46.072;14.474;2022-09-27T13:47:31;16.00;92.90
44607;DHT22;30315;46.072;14.474;2022-09-27T13:52:45;16.00;93.10
44607;DHT22;30315;46.072;14.474;2022-09-27T13:58:03;15.90;91.40
44607;DHT22;30315;46.072;14.474;2022-09-27T14:00:40;15.80;91.30
44607;DHT22;30315;46.072;14.474;2022-09-27T14:03:30;15.70;91.30
44607;DHT22;30315;46.072;14.474;2022-09-27T14:06:16;15.70;91.60
44607;DHT22;30315;46.072;14.474;2022-09-27T14:08:53;15.70;90.90
44607;DHT22;30315;46.072;14.474;2022-09-27T14:11:27;15.60;91.00
44607;DHT22;30315;46.072;14.474;2022-09-27T14:13:55;15.50;90.80
44607;DHT22;30315;46.072;14.474;2022-09-27T14:16:26;15.50;91.20
44607;DHT22;30315;46.072;14.474;2022-09-27T14:18:56;15.40;90.70
44607;DHT22;30315;46.072;14.474;2022-09-27T14:21:36;15.40;91.00
44607;DHT22;30315;46.072;14.474;2022-09-27T14:29:52;15.30;92.00
44607;DHT22;30315;46.072;14.474;2022-09-27T14:32:33;15.50;91.60
44607;DHT22;30315;46.072;14.474;2022-09-27T14:35:17;15.50;91.90
44607;DHT22;30315;46.072;14.474;2022-09-27T14:38:05;15.60;92.60
44607;DHT22;30315;46.072;14.474;2022-09-27T14:43:21;15.50;90.80
44607;DHT22;30315;46.072;14.474;2022-09-27T14:45:48;15.50;90.50
44607;DHT22;30315;46.072;14.474;2022-09-27T14:48:21;15.40;90.40
44607;DHT22;30315;46.072;14.474;2022-09-27T14:51:31;15.40;91.00
44607;DHT22;30315;46.072;14.474;2022-09-27T14:53:49;15.40;91.30
44607;DHT22;30315;46.072;14.474;2022-09-27T14:56:20;15.50;91.50
44607;DHT22;30315;46.072;14.474;2022-09-27T14:58:49;15.50;91.70
44607;DHT22;30315;46.072;14.474;2022-09-27T15:01:18;15.50;91.60
44607;DHT22;30315;46.072;14.474;2022-09-27T15:03:46;15.50;91.00
44607;DHT22;30315;46.072;14.474;2022-09-27T15:06:17;15.50;90.90
44607;DHT22;30315;46.072;14.474;2022-09-27T15:08:46;15.50;90.30
44607;DHT22;30315;46.072;14.474;2022-09-27T15:11:16;15.30;88.90
44607;DHT22;30315;46.072;14.474;2022-09-27T15:13:43;15.30;89.50
44607;DHT22;30315;46.072;14.474;2022-09-27T15:16:17;15.30;89.90
44607;DHT22;30315;46.072;14.474;2022-09-27T15:18:47;15.30;89.60
44607;DHT22;30315;46.072;14.474;2022-09-27T15:21:15;15.20;87.60
44607;DHT22;30315;46.072;14.474;2022-09-27T15:23:53;15.10;87.90
44607;DHT22;30315;46.072;14.474;2022-09-27T15:26:22;15.10;88.40
44607;DHT22;30315;46.072;14.474;2022-09-27T15:28:50;15.00;87.30
44607;DHT22;30315;46.072;14.474;2022-09-27T15:31:30;15.00;87.90
44607;DHT22;30315;46.072;14.474;2022-09-27T15:33:58;15.00;88.60
44607;DHT22;30315;46.072;14.474;2022-09-27T15:39:10;14.80;88.10
44607;DHT22;30315;46.072;14.474;2022-09-27T15:52:48;14.50;87.70
44607;DHT22;30315;46.072;14.474;2022-09-27T15:55:17;14.40;88.10
44607;DHT22;30315;46.072;14.474;2022-09-27T15:57:46;14.50;89.70
44607;DHT22;30315;46.072;14.474;2022-09-27T16:00:15;14.60;90.50
44607;DHT22;30315;46.072;14.474;2022-09-27T16:02:42;14.70;90.60
44607;DHT22;30315;46.072;14.474;2022-09-27T16:05:09;14.70;90.80
44607;DHT22;30315;46.072;14.474;2022-09-27T16:07:36;14.70;90.50
44607;DHT22;30315;46.072;14.474;2022-09-27T16:10:12;14.70;90.90
44607;DHT22;30315;46.072;14.474;2022-09-27T16:12:39;14.80;91.50
44607;DHT22;30315;46.072;14.474;2022-09-27T16:15:07;14.80;91.70
44607;DHT22;30315;46.072;14.474;2022-09-27T16:17:34;14.80;91.70
44607;DHT22;30315;46.072;14.474;2022-09-27T16:20:05;14.80;91.40
44607;DHT22;30315;46.072;14.474;2022-09-27T16:22:32;14.70;91.70
44607;DHT22;30315;46.072;14.474;2022-09-27T16:24:59;14.70;92.00
44607;DHT22;30315;46.072;14.474;2022-09-27T16:27:27;14.80;91.60
44607;DHT22;30315;46.072;14.474;2022-09-27T16:29:54;14.80;91.90
44607;DHT22;30315;46.072;14.474;2022-09-27T16:32:23;14.90;92.20
44607;DHT22;30315;46.072;14.474;2022-09-27T16:34:50;14.80;92.20
44607;DHT22;30315;46.072;14.474;2022-09-27T16:37:18;14.90;92.30
44607;DHT22;30315;46.072;14.474;2022-09-27T16:39:44;14.90;92.40
44607;DHT22;30315;46.072;14.474;2022-09-27T16:42:11;15.00;92.70
44607;DHT22;30315;46.072;14.474;2022-09-27T16:44:39;15.10;92.90
44607;DHT22;30315;46.072;14.474;2022-09-27T16:47:06;15.10;92.90
44607;DHT22;30315;46.072;14.474;2022-09-27T16:49:32;14.90;92.70
44607;DHT22;30315;46.072;14.474;2022-09-27T16:52:18;15.20;92.70
44607;DHT22;30315;46.072;14.474;2022-09-27T16:54:45;15.10;92.70
44607;DHT22;30315;46.072;14.474;2022-09-27T16:57:12;15.10;92.90
44607;DHT22;30315;46.072;14.474;2022-09-27T16:59:39;15.10;93.10
44607;DHT22;30315;46.072;14.474;2022-09-27T17:02:06;15.10;93.10
44607;DHT22;30315;46.072;14.474;2022-09-27T17:04:32;15.00;93.00
44607;DHT22;30315;46.072;14.474;2022-09-27T17:06:59;15.00;93.20
44607;DHT22;30315;46.072;14.474;2022-09-27T17:09:26;15.00;93.30
44607;DHT22;30315;46.072;14.474;2022-09-27T17:11:53;15.00;93.30
44607;DHT22;30315;46.072;14.474;2022-09-27T17:14:21;15.00;93.40
44607;DHT22;30315;46.072;14.474;2022-09-27T17:16:49;14.90;93.50
44607;DHT22;30315;46.072;14.474;2022-09-27T17:19:16;14.90;93.60
44607;DHT22;30315;46.072;14.474;2022-09-27T17:21:44;14.90;93.70
44607;DHT22;30315;46.072;14.474;2022-09-27T17:24:11;14.90;94.00
44607;DHT22;30315;46.072;14.474;2022-09-27T17:26:38;14.90;94.00
44607;DHT22;30315;46.072;14.474;2022-09-27T17:29:05;14.90;93.80
44607;DHT22;30315;46.072;14.474;2022-09-27T17:31:33;14.90;93.60
44607;DHT22;30315;46.072;14.474;2022-09-27T17:34:00;14.80;93.60
44607;DHT22;30315;46.072;14.474;2022-09-27T17:36:29;14.90;93.90
44607;DHT22;30315;46.072;14.474;2022-09-27T17:38:58;14.90;93.90
44607;DHT22;30315;46.072;14.474;2022-09-27T17:41:25;14.80;93.80
44607;DHT22;30315;46.072;14.474;2022-09-27T17:43:53;14.80;93.60
44607;DHT22;30315;46.072;14.474;2022-09-27T17:46:21;14.80;93.70
44607;DHT22;30315;46.072;14.474;2022-09-27T17:48:48;14.80;93.80
44607;DHT22;30315;46.072;14.474;2022-09-27T17:51:35;14.80;93.40
44607;DHT22;30315;46.072;14.474;2022-09-27T17:54:02;14.70;93.40
44607;DHT22;30315;46.072;14.474;2022-09-27T17:56:30;14.40;93.00
44607;DHT22;30315;46.072;14.474;2022-09-27T17:59:00;14.60;93.30
44607;DHT22;30315;46.072;14.474;2022-09-27T18:01:26;14.60;93.40
44607;DHT22;30315;46.072;14.474;2022-09-27T18:03:54;14.70;93.30
44607;DHT22;30315;46.072;14.474;2022-09-27T18:06:22;14.60;93.50
44607;DHT22;30315;46.072;14.474;2022-09-27T18:08:49;14.30;93.50
44607;DHT22;30315;46.072;14.474;2022-09-27T18:11:17;14.60;93.80
44607;DHT22;30315;46.072;14.474;2022-09-27T18:13:44;14.60;94.10
44607;DHT22;30315;46.072;14.474;2022-09-27T18:16:12;14.60;94.00
44607;DHT22;30315;46.072;14.474;2022-09-27T18:18:40;14.60;93.90
44607;DHT22;30315;46.072;14.474;2022-09-27T18:21:11;14.60;93.80
44607;DHT22;30315;46.072;14.474;2022-09-27T18:23:40;14.60;93.80
44607;DHT22;30315;46.072;14.474;2022-09-27T18:26:08;14.60;94.00
44607;DHT22;30315;46.072;14.474;2022-09-27T18:28:35;14.60;93.90
44607;DHT22;30315;46.072;14.474;2022-09-27T18:31:05;14.60;93.60
44607;DHT22;30315;46.072;14.474;2022-09-27T18:33:32;14.60;93.60
44607;DHT22;30315;46.072;14.474;2022-09-27T18:36:06;14.60;93.60
44607;DHT22;30315;46.072;14.474;2022-09-27T18:38:33;14.80;93.90
44607;DHT22;30315;46.072;14.474;2022-09-27T18:41:05;14.50;93.90
44607;DHT22;30315;46.072;14.474;2022-09-27T18:43:32;14.50;93.90
44607;DHT22;30315;46.072;14.474;2022-09-27T18:46:06;14.50;93.60
44607;DHT22;30315;46.072;14.474;2022-09-27T18:48:54;14.60;93.60
44607;DHT22;30315;46.072;14.474;2022-09-27T18:51:22;14.50;93.50
44607;DHT22;30315;46.072;14.474;2022-09-27T18:53:53;14.50;93.50
44607;DHT22;30315;46.072;14.474;2022-09-27T18:56:20;14.50;93.90
44607;DHT22;30315;46.072;14.474;2022-09-27T18:58:47;14.60;94.10
44607;DHT22;30315;46.072;14.474;2022-09-27T19:01:15;14.50;94.30
44607;DHT22;30315;46.072;14.474;2022-09-27T19:03:42;14.50;94.50
44607;DHT22;30315;46.072;14.474;2022-09-27T19:06:11;14.40;94.60
44607;DHT22;30315;46.072;14.474;2022-09-27T19:08:38;14.10;94.60